NJE059G LPFR-LSGS
Flight info
| Callsign | NJE059G |
|---|---|
| Flight time | 2h 23m |
| Altitude | 35000 |
| Route | NIRAK DCT OSLEP N858 OXACA M30 HIJ N10 VTB N871 TOPTU DCT GAI DCT NOQAS DCT MURRO T544 LSE DCT BELUS DCT OMASI N871 KINNI Z67 VENAT Y223 VALOR |
| Aircraft | CL60/M-SBDE1E2E3FGHIJ1J4J5J7M3RWXYZ/LB1V1D1 |
Departure
| Time | 2026-04-13 15:25 |
|---|---|
| Airport | Faro - Gago Coutinho International Airport (LPFR) |
Arrival
| Time | 2026-04-13 17:48 |
|---|---|
| Airport | Sion Airport (LSGS) |
| Time | Latitude | Longitude | Altitude | Speed | Heading |
|---|---|---|---|---|---|
| 2026-04-13 14:49 | 37.01769 | -7.97203 | 22 ft | 0 kts | 161° |
| 2026-04-13 15:20 | 37.01768 | -7.97201 | 22 ft | 1 kts | 141° |
| 2026-04-13 15:20 | 37.01771 | -7.97190 | 22 ft | 1 kts | 19° |
| 2026-04-13 15:21 | 37.01783 | -7.97190 | 23 ft | 1 kts | 356° |
| 2026-04-13 15:21 | 37.01812 | -7.97186 | 24 ft | 8 kts | 32° |
| 2026-04-13 15:21 | 37.01812 | -7.97100 | 25 ft | 12 kts | 99° |
| 2026-04-13 15:21 | 37.01796 | -7.96981 | 25 ft | 11 kts | 99° |
| 2026-04-13 15:22 | 37.01786 | -7.96915 | 26 ft | 7 kts | 109° |
| 2026-04-13 15:22 | 37.01728 | -7.96904 | 25 ft | 11 kts | 191° |
| 2026-04-13 15:22 | 37.01662 | -7.96847 | 24 ft | 15 kts | 99° |
| 2026-04-13 15:22 | 37.01643 | -7.96706 | 25 ft | 18 kts | 100° |
| 2026-04-13 15:23 | 37.01617 | -7.96531 | 23 ft | 22 kts | 100° |
| 2026-04-13 15:23 | 37.01587 | -7.96319 | 21 ft | 25 kts | 100° |
| 2026-04-13 15:23 | 37.01555 | -7.96098 | 23 ft | 27 kts | 99° |
| 2026-04-13 15:23 | 37.01530 | -7.95924 | 19 ft | 15 kts | 101° |
| 2026-04-13 15:24 | 37.01479 | -7.95839 | 17 ft | 13 kts | 170° |
| 2026-04-13 15:24 | 37.01374 | -7.95859 | 18 ft | 16 kts | 191° |
| 2026-04-13 15:24 | 37.01346 | -7.95911 | 20 ft | 0 kts | 279° |
| 2026-04-13 15:24 | 37.01375 | -7.96112 | 24 ft | 66 kts | 281° |
| 2026-04-13 15:25 | 37.01510 | -7.97084 | 47 ft | 151 kts | 280° |
| 2026-04-13 15:25 | 37.01665 | -7.98481 | 693 ft | 174 kts | 280° |
| 2026-04-13 15:25 | 37.01772 | -7.99963 | 1517 ft | 176 kts | 278° |
| 2026-04-13 15:25 | 37.01866 | -8.01483 | 2252 ft | 179 kts | 280° |
| 2026-04-13 15:26 | 37.02002 | -8.03134 | 2602 ft | 210 kts | 280° |
| 2026-04-13 15:26 | 37.02291 | -8.04964 | 2921 ft | 213 kts | 298° |
| 2026-04-13 15:26 | 37.03293 | -8.06254 | 3404 ft | 211 kts | 336° |
| 2026-04-13 15:26 | 37.04764 | -8.06447 | 3934 ft | 228 kts | 12° |
| 2026-04-13 15:27 | 37.06181 | -8.05399 | 4576 ft | 255 kts | 45° |
| 2026-04-13 15:27 | 37.07009 | -8.03364 | 5362 ft | 277 kts | 72° |
| 2026-04-13 15:27 | 37.07592 | -8.01067 | 6720 ft | 278 kts | 59° |
| 2026-04-13 15:27 | 37.08703 | -7.99233 | 8162 ft | 271 kts | 38° |
| 2026-04-13 15:28 | 37.10283 | -7.98060 | 9438 ft | 270 kts | 16° |
| 2026-04-13 15:28 | 37.12110 | -7.97678 | 10689 ft | 272 kts | 3° |
| 2026-04-13 15:28 | 37.13909 | -7.97085 | 11882 ft | 281 kts | 26° |
| 2026-04-13 15:28 | 37.15334 | -7.95361 | 13005 ft | 296 kts | 51° |
| 2026-04-13 15:29 | 37.16478 | -7.93218 | 14064 ft | 303 kts | 52° |
| 2026-04-13 15:29 | 37.17646 | -7.91033 | 15128 ft | 307 kts | 51° |
| 2026-04-13 15:29 | 37.18848 | -7.88823 | 16045 ft | 315 kts | 50° |
| 2026-04-13 15:29 | 37.20146 | -7.86493 | 16522 ft | 337 kts | 49° |
| 2026-04-13 15:30 | 37.21522 | -7.84070 | 17165 ft | 350 kts | 49° |
| 2026-04-13 15:30 | 37.22956 | -7.81579 | 17981 ft | 357 kts | 48° |
| 2026-04-13 15:30 | 37.24421 | -7.79060 | 18830 ft | 361 kts | 47° |
| 2026-04-13 15:30 | 37.25901 | -7.76532 | 19729 ft | 363 kts | 46° |
| 2026-04-13 15:31 | 37.27402 | -7.73991 | 20537 ft | 366 kts | 46° |
| 2026-04-13 15:31 | 37.28945 | -7.71414 | 21336 ft | 369 kts | 45° |
| 2026-04-13 15:31 | 37.30481 | -7.68857 | 22078 ft | 372 kts | 45° |
| 2026-04-13 15:31 | 37.32037 | -7.66268 | 22832 ft | 373 kts | 44° |
| 2026-04-13 15:32 | 37.33599 | -7.63674 | 23520 ft | 377 kts | 44° |
| 2026-04-13 15:32 | 37.35181 | -7.61047 | 24245 ft | 380 kts | 44° |
| 2026-04-13 15:32 | 37.36780 | -7.58395 | 24952 ft | 383 kts | 44° |
| 2026-04-13 15:32 | 37.38390 | -7.55726 | 25631 ft | 386 kts | 44° |
| 2026-04-13 15:33 | 37.40018 | -7.53025 | 26331 ft | 388 kts | 44° |
| 2026-04-13 15:33 | 37.41654 | -7.50312 | 26972 ft | 390 kts | 44° |
| 2026-04-13 15:33 | 37.43302 | -7.47578 | 27611 ft | 391 kts | 43° |
| 2026-04-13 15:34 | 37.46594 | -7.42119 | 28691 ft | 397 kts | 43° |
| 2026-04-13 15:34 | 37.48275 | -7.39329 | 29218 ft | 399 kts | 43° |
| 2026-04-13 15:34 | 37.49949 | -7.36547 | 29749 ft | 401 kts | 43° |
| 2026-04-13 15:34 | 37.51629 | -7.33757 | 30208 ft | 403 kts | 43° |
| 2026-04-13 15:35 | 37.53341 | -7.30911 | 30671 ft | 404 kts | 43° |
| 2026-04-13 15:35 | 37.55065 | -7.28043 | 31096 ft | 407 kts | 43° |
| 2026-04-13 15:35 | 37.56810 | -7.25140 | 31409 ft | 412 kts | 43° |
| 2026-04-13 15:35 | 37.58567 | -7.22214 | 31830 ft | 413 kts | 43° |
| 2026-04-13 15:36 | 37.60320 | -7.19286 | 32377 ft | 411 kts | 43° |
| 2026-04-13 15:36 | 37.62049 | -7.16396 | 32943 ft | 407 kts | 42° |
| 2026-04-13 15:36 | 37.63769 | -7.13518 | 33486 ft | 404 kts | 42° |
| 2026-04-13 15:36 | 37.65451 | -7.10704 | 33971 ft | 402 kts | 42° |
| 2026-04-13 15:37 | 37.67128 | -7.07899 | 34394 ft | 400 kts | 42° |
| 2026-04-13 15:37 | 37.68802 | -7.05099 | 34696 ft | 400 kts | 42° |
| 2026-04-13 15:37 | 37.70470 | -7.02306 | 35000 ft | 401 kts | 42° |
| 2026-04-13 15:37 | 37.72157 | -6.99482 | 35145 ft | 405 kts | 42° |
| 2026-04-13 15:38 | 37.75668 | -6.93611 | 35136 ft | 420 kts | 43° |
| 2026-04-13 15:38 | 37.79225 | -6.87636 | 35141 ft | 427 kts | 43° |
| 2026-04-13 15:39 | 37.82798 | -6.81616 | 35135 ft | 427 kts | 43° |
| 2026-04-13 15:39 | 37.86378 | -6.75572 | 35130 ft | 426 kts | 43° |
| 2026-04-13 15:40 | 37.89916 | -6.69592 | 35130 ft | 426 kts | 43° |
| 2026-04-13 15:40 | 37.93502 | -6.63520 | 35130 ft | 426 kts | 43° |
| 2026-04-13 15:41 | 37.97081 | -6.57446 | 35135 ft | 425 kts | 43° |
| 2026-04-13 15:41 | 38.00620 | -6.51434 | 35126 ft | 426 kts | 43° |
| 2026-04-13 15:42 | 38.04168 | -6.45396 | 35124 ft | 427 kts | 43° |
| 2026-04-13 15:42 | 38.07707 | -6.39361 | 35122 ft | 427 kts | 43° |
| 2026-04-13 15:43 | 38.11221 | -6.33358 | 35120 ft | 426 kts | 44° |
| 2026-04-13 15:43 | 38.14778 | -6.27270 | 35123 ft | 426 kts | 44° |
| 2026-04-13 15:44 | 38.18335 | -6.21172 | 35121 ft | 428 kts | 44° |
| 2026-04-13 15:44 | 38.21875 | -6.15092 | 35117 ft | 428 kts | 44° |
| 2026-04-13 15:45 | 38.25440 | -6.08955 | 35111 ft | 427 kts | 44° |
| 2026-04-13 15:45 | 38.28986 | -6.02839 | 35117 ft | 427 kts | 44° |
| 2026-04-13 15:46 | 38.32518 | -5.96737 | 35114 ft | 427 kts | 44° |
| 2026-04-13 15:46 | 38.36039 | -5.90691 | 35112 ft | 427 kts | 43° |
| 2026-04-13 15:47 | 38.39613 | -5.84535 | 35108 ft | 428 kts | 44° |
| 2026-04-13 15:47 | 38.43179 | -5.78366 | 35114 ft | 428 kts | 44° |
| 2026-04-13 15:48 | 38.46694 | -5.72226 | 35107 ft | 429 kts | 44° |
| 2026-04-13 15:48 | 38.50222 | -5.66050 | 35100 ft | 429 kts | 45° |
| 2026-04-13 15:49 | 38.53721 | -5.59917 | 35092 ft | 429 kts | 45° |
| 2026-04-13 15:49 | 38.57235 | -5.53753 | 35094 ft | 429 kts | 45° |
| 2026-04-13 15:50 | 38.60766 | -5.47552 | 35091 ft | 430 kts | 45° |
| 2026-04-13 15:50 | 38.64262 | -5.41399 | 35090 ft | 430 kts | 45° |
| 2026-04-13 15:51 | 38.67771 | -5.35214 | 35087 ft | 429 kts | 45° |
| 2026-04-13 15:51 | 38.71287 | -5.29009 | 35078 ft | 431 kts | 46° |
| 2026-04-13 15:52 | 38.74813 | -5.22776 | 35074 ft | 431 kts | 46° |
| 2026-04-13 15:52 | 38.78308 | -5.16583 | 35090 ft | 431 kts | 46° |
| 2026-04-13 15:53 | 38.81839 | -5.10318 | 35082 ft | 432 kts | 46° |
| 2026-04-13 15:53 | 38.85347 | -5.04082 | 35062 ft | 433 kts | 46° |
| 2026-04-13 15:54 | 38.88860 | -4.97823 | 35073 ft | 433 kts | 46° |
| 2026-04-13 15:54 | 38.92389 | -4.91524 | 35070 ft | 433 kts | 46° |
| 2026-04-13 15:55 | 38.95942 | -4.85170 | 35064 ft | 433 kts | 46° |
| 2026-04-13 15:55 | 38.99442 | -4.78898 | 35058 ft | 434 kts | 46° |
| 2026-04-13 15:56 | 39.02951 | -4.72599 | 35058 ft | 434 kts | 46° |
| 2026-04-13 15:56 | 39.06481 | -4.66250 | 35058 ft | 434 kts | 46° |
| 2026-04-13 15:57 | 39.10001 | -4.59907 | 35055 ft | 434 kts | 46° |
| 2026-04-13 15:57 | 39.13512 | -4.53565 | 35054 ft | 435 kts | 46° |
| 2026-04-13 15:58 | 39.17048 | -4.47167 | 35053 ft | 435 kts | 46° |
| 2026-04-13 15:58 | 39.20545 | -4.40827 | 35052 ft | 435 kts | 46° |
| 2026-04-13 15:59 | 39.24077 | -4.34410 | 35053 ft | 434 kts | 47° |
| 2026-04-13 15:59 | 39.27608 | -4.27984 | 35050 ft | 435 kts | 47° |
| 2026-04-13 16:00 | 39.31107 | -4.21603 | 35050 ft | 437 kts | 47° |
| 2026-04-13 16:00 | 39.34609 | -4.15204 | 35050 ft | 437 kts | 47° |
| 2026-04-13 16:01 | 39.38104 | -4.08801 | 35045 ft | 437 kts | 47° |
| 2026-04-13 16:01 | 39.41642 | -4.02311 | 35043 ft | 438 kts | 47° |
| 2026-04-13 16:02 | 39.45143 | -3.95873 | 35042 ft | 439 kts | 47° |
| 2026-04-13 16:02 | 39.48649 | -3.89413 | 35045 ft | 438 kts | 47° |
| 2026-04-13 16:03 | 39.52138 | -3.82970 | 35040 ft | 437 kts | 47° |
| 2026-04-13 16:03 | 39.55637 | -3.76499 | 35040 ft | 437 kts | 47° |
| 2026-04-13 16:04 | 39.59593 | -3.70703 | 35038 ft | 428 kts | 38° |
| 2026-04-13 16:04 | 39.63800 | -3.65208 | 35038 ft | 428 kts | 38° |
| 2026-04-13 16:05 | 39.68019 | -3.59676 | 35034 ft | 428 kts | 38° |
| 2026-04-13 16:05 | 39.72259 | -3.54104 | 35036 ft | 428 kts | 38° |
| 2026-04-13 16:06 | 39.76443 | -3.48595 | 35025 ft | 429 kts | 38° |
| 2026-04-13 16:06 | 39.80999 | -3.43889 | 35029 ft | 418 kts | 27° |
| 2026-04-13 16:07 | 39.85878 | -3.39721 | 35026 ft | 419 kts | 27° |
| 2026-04-13 16:07 | 39.90783 | -3.35514 | 35026 ft | 419 kts | 27° |
| 2026-04-13 16:08 | 39.95674 | -3.31310 | 35025 ft | 419 kts | 28° |
| 2026-04-13 16:08 | 40.00536 | -3.27122 | 35017 ft | 420 kts | 28° |
| 2026-04-13 16:09 | 40.05408 | -3.22917 | 35022 ft | 421 kts | 28° |
| 2026-04-13 16:09 | 40.10323 | -3.18666 | 35016 ft | 421 kts | 28° |
| 2026-04-13 16:10 | 40.15222 | -3.14421 | 35020 ft | 421 kts | 28° |
| 2026-04-13 16:10 | 40.20128 | -3.10162 | 35017 ft | 421 kts | 28° |
| 2026-04-13 16:11 | 40.25071 | -3.05863 | 35009 ft | 421 kts | 28° |
| 2026-04-13 16:11 | 40.29972 | -3.01592 | 35014 ft | 421 kts | 28° |
| 2026-04-13 16:12 | 40.34846 | -2.97334 | 35008 ft | 421 kts | 28° |
| 2026-04-13 16:12 | 40.39749 | -2.93046 | 35009 ft | 422 kts | 28° |
| 2026-04-13 16:13 | 40.44647 | -2.88754 | 35008 ft | 422 kts | 28° |
| 2026-04-13 16:13 | 40.49541 | -2.84455 | 35088 ft | 417 kts | 28° |
| 2026-04-13 16:14 | 40.51916 | -2.82363 | 35239 ft | 408 kts | 28° |
| 2026-04-13 16:14 | 40.54270 | -2.80289 | 35390 ft | 403 kts | 28° |
| 2026-04-13 16:14 | 40.56611 | -2.78226 | 35544 ft | 401 kts | 28° |
| 2026-04-13 16:14 | 40.58895 | -2.76213 | 35694 ft | 399 kts | 28° |
| 2026-04-13 16:15 | 40.61227 | -2.74157 | 35844 ft | 399 kts | 28° |
| 2026-04-13 16:15 | 40.63546 | -2.72111 | 35984 ft | 399 kts | 28° |
| 2026-04-13 16:15 | 40.68249 | -2.67961 | 35994 ft | 414 kts | 28° |
| 2026-04-13 16:16 | 40.73103 | -2.63667 | 35995 ft | 423 kts | 29° |
| 2026-04-13 16:16 | 40.78007 | -2.59316 | 35996 ft | 424 kts | 28° |
| 2026-04-13 16:17 | 40.82910 | -2.54959 | 35998 ft | 422 kts | 29° |
| 2026-04-13 16:17 | 40.87823 | -2.50581 | 35993 ft | 422 kts | 29° |
| 2026-04-13 16:18 | 40.92687 | -2.46241 | 35993 ft | 423 kts | 28° |
| 2026-04-13 16:18 | 40.97566 | -2.41879 | 35990 ft | 423 kts | 29° |
| 2026-04-13 16:19 | 41.02483 | -2.37453 | 35991 ft | 424 kts | 30° |
| 2026-04-13 16:19 | 41.07148 | -2.32567 | 35997 ft | 426 kts | 34° |
| 2026-04-13 16:20 | 41.11811 | -2.27602 | 36001 ft | 427 kts | 34° |
| 2026-04-13 16:20 | 41.16444 | -2.22662 | 36004 ft | 426 kts | 34° |
| 2026-04-13 16:21 | 41.21038 | -2.17759 | 36010 ft | 426 kts | 34° |
| 2026-04-13 16:21 | 41.25676 | -2.12811 | 36013 ft | 426 kts | 33° |
| 2026-04-13 16:22 | 41.30302 | -2.07878 | 36014 ft | 426 kts | 33° |
| 2026-04-13 16:23 | 41.37251 | -2.00452 | 36015 ft | 426 kts | 33° |
| 2026-04-13 16:23 | 41.41865 | -1.95497 | 36004 ft | 426 kts | 34° |
| 2026-04-13 16:24 | 41.46470 | -1.90524 | 35996 ft | 427 kts | 34° |
| 2026-04-13 16:24 | 41.51138 | -1.85477 | 36002 ft | 426 kts | 33° |
| 2026-04-13 16:25 | 41.55788 | -1.80442 | 36000 ft | 426 kts | 34° |
| 2026-04-13 16:25 | 41.60391 | -1.75452 | 35984 ft | 426 kts | 34° |
| 2026-04-13 16:26 | 41.65004 | -1.70444 | 35995 ft | 426 kts | 33° |
| 2026-04-13 16:26 | 41.69606 | -1.65440 | 35997 ft | 425 kts | 33° |
| 2026-04-13 16:27 | 41.74188 | -1.60448 | 36001 ft | 426 kts | 33° |
| 2026-04-13 16:27 | 41.78809 | -1.55406 | 36013 ft | 426 kts | 33° |
| 2026-04-13 16:28 | 41.83384 | -1.50404 | 36017 ft | 426 kts | 33° |
| 2026-04-13 16:28 | 41.87981 | -1.45371 | 36027 ft | 426 kts | 33° |
| 2026-04-13 16:29 | 41.92609 | -1.40295 | 36017 ft | 426 kts | 33° |
| 2026-04-13 16:29 | 41.97214 | -1.35234 | 36010 ft | 426 kts | 33° |
| 2026-04-13 16:30 | 42.01788 | -1.30199 | 36006 ft | 427 kts | 34° |
| 2026-04-13 16:30 | 42.06399 | -1.25111 | 36002 ft | 427 kts | 34° |
| 2026-04-13 16:31 | 42.10994 | -1.20030 | 36001 ft | 427 kts | 34° |
| 2026-04-13 16:31 | 42.15606 | -1.14921 | 35994 ft | 428 kts | 34° |
| 2026-04-13 16:32 | 42.20223 | -1.09796 | 35992 ft | 428 kts | 34° |
| 2026-04-13 16:32 | 42.24807 | -1.04701 | 35984 ft | 429 kts | 34° |
| 2026-04-13 16:33 | 42.29406 | -0.99604 | 35992 ft | 429 kts | 33° |
| 2026-04-13 16:33 | 42.34027 | -0.94447 | 36001 ft | 429 kts | 34° |
| 2026-04-13 16:34 | 42.38632 | -0.89288 | 35998 ft | 428 kts | 34° |
| 2026-04-13 16:34 | 42.43090 | -0.83992 | 35988 ft | 434 kts | 41° |
| 2026-04-13 16:35 | 42.46910 | -0.77473 | 35964 ft | 438 kts | 46° |
| 2026-04-13 16:35 | 42.50646 | -0.70896 | 36004 ft | 438 kts | 46° |
| 2026-04-13 16:36 | 42.54345 | -0.64382 | 35963 ft | 438 kts | 46° |
| 2026-04-13 16:36 | 42.58066 | -0.57800 | 35974 ft | 438 kts | 46° |
| 2026-04-13 16:37 | 42.61769 | -0.51238 | 35956 ft | 437 kts | 46° |
| 2026-04-13 16:37 | 42.65470 | -0.44666 | 35951 ft | 437 kts | 46° |
| 2026-04-13 16:38 | 42.69171 | -0.38079 | 35929 ft | 437 kts | 46° |
| 2026-04-13 16:38 | 42.72881 | -0.31465 | 35938 ft | 437 kts | 47° |
| 2026-04-13 16:39 | 42.76570 | -0.24873 | 35921 ft | 437 kts | 47° |
| 2026-04-13 16:39 | 42.80260 | -0.18322 | 35940 ft | 436 kts | 46° |
| 2026-04-13 16:40 | 42.84098 | -0.11843 | 35943 ft | 437 kts | 46° |
| 2026-04-13 16:40 | 42.87930 | -0.05365 | 35957 ft | 437 kts | 46° |
| 2026-04-13 16:41 | 42.91758 | 0.01122 | 36001 ft | 437 kts | 46° |
| 2026-04-13 16:41 | 42.95595 | 0.07637 | 36017 ft | 437 kts | 46° |
| 2026-04-13 16:42 | 42.99396 | 0.14107 | 36021 ft | 437 kts | 46° |
| 2026-04-13 16:42 | 43.03195 | 0.20587 | 36037 ft | 438 kts | 46° |
| 2026-04-13 16:43 | 43.06999 | 0.27090 | 36042 ft | 439 kts | 46° |
| 2026-04-13 16:43 | 43.10800 | 0.33602 | 36051 ft | 439 kts | 46° |
| 2026-04-13 16:44 | 43.14671 | 0.40250 | 36050 ft | 440 kts | 46° |
| 2026-04-13 16:44 | 43.18510 | 0.46857 | 36048 ft | 441 kts | 46° |
| 2026-04-13 16:45 | 43.22362 | 0.53501 | 36058 ft | 441 kts | 46° |
| 2026-04-13 16:45 | 43.26217 | 0.60166 | 36056 ft | 441 kts | 46° |
| 2026-04-13 16:46 | 43.30038 | 0.66788 | 36049 ft | 442 kts | 47° |
| 2026-04-13 16:46 | 43.33833 | 0.73358 | 36053 ft | 442 kts | 46° |
| 2026-04-13 16:47 | 43.37679 | 0.80053 | 36051 ft | 443 kts | 47° |
| 2026-04-13 16:47 | 43.41518 | 0.86755 | 36054 ft | 443 kts | 47° |
| 2026-04-13 16:48 | 43.45373 | 0.93498 | 36051 ft | 444 kts | 47° |
| 2026-04-13 16:48 | 43.49077 | 1.00314 | 36047 ft | 447 kts | 51° |
| 2026-04-13 16:49 | 43.52698 | 1.07384 | 36047 ft | 447 kts | 50° |
| 2026-04-13 16:49 | 43.56304 | 1.14433 | 36039 ft | 448 kts | 51° |
| 2026-04-13 16:50 | 43.59909 | 1.21466 | 36044 ft | 448 kts | 51° |
| 2026-04-13 16:50 | 43.63508 | 1.28491 | 36041 ft | 450 kts | 50° |
| 2026-04-13 16:51 | 43.67135 | 1.35589 | 36006 ft | 451 kts | 50° |
| 2026-04-13 16:51 | 43.68951 | 1.39156 | 36344 ft | 452 kts | 50° |
| 2026-04-13 16:51 | 43.70786 | 1.42778 | 36101 ft | 456 kts | 51° |
| 2026-04-13 16:52 | 43.74365 | 1.49894 | 36037 ft | 451 kts | 51° |
| 2026-04-13 16:52 | 43.77959 | 1.57021 | 36021 ft | 451 kts | 51° |
| 2026-04-13 16:53 | 43.81575 | 1.64204 | 36011 ft | 453 kts | 51° |
| 2026-04-13 16:53 | 43.85221 | 1.71463 | 36011 ft | 454 kts | 52° |
| 2026-04-13 16:54 | 43.88854 | 1.78709 | 36010 ft | 455 kts | 52° |
| 2026-04-13 16:54 | 43.92475 | 1.85949 | 36009 ft | 456 kts | 52° |
| 2026-04-13 16:55 | 43.96061 | 1.93134 | 36005 ft | 456 kts | 52° |
| 2026-04-13 16:55 | 43.99683 | 2.00409 | 36001 ft | 457 kts | 52° |
| 2026-04-13 16:56 | 44.03298 | 2.07688 | 36004 ft | 457 kts | 52° |
| 2026-04-13 16:56 | 44.06924 | 2.15006 | 35992 ft | 458 kts | 53° |
| 2026-04-13 16:57 | 44.10553 | 2.22346 | 35982 ft | 459 kts | 53° |
| 2026-04-13 16:57 | 44.14175 | 2.29693 | 35981 ft | 461 kts | 53° |
| 2026-04-13 16:58 | 44.17796 | 2.37054 | 35982 ft | 462 kts | 53° |
| 2026-04-13 16:58 | 44.21430 | 2.44462 | 35983 ft | 462 kts | 53° |
| 2026-04-13 16:59 | 44.25067 | 2.51893 | 35971 ft | 464 kts | 53° |
| 2026-04-13 16:59 | 44.28742 | 2.59421 | 35983 ft | 464 kts | 53° |
| 2026-04-13 17:00 | 44.32379 | 2.66893 | 35971 ft | 466 kts | 54° |
| 2026-04-13 17:00 | 44.36017 | 2.74383 | 35967 ft | 467 kts | 54° |
| 2026-04-13 17:01 | 44.39653 | 2.81891 | 35953 ft | 467 kts | 54° |
| 2026-04-13 17:01 | 44.43310 | 2.89461 | 35957 ft | 467 kts | 54° |
| 2026-04-13 17:02 | 44.46938 | 2.96990 | 35954 ft | 467 kts | 54° |
| 2026-04-13 17:02 | 44.50557 | 3.04520 | 35937 ft | 468 kts | 55° |
| 2026-04-13 17:03 | 44.54175 | 3.12068 | 35957 ft | 467 kts | 55° |
| 2026-04-13 17:03 | 44.57800 | 3.19650 | 35950 ft | 468 kts | 55° |
| 2026-04-13 17:04 | 44.61414 | 3.27229 | 35938 ft | 468 kts | 55° |
| 2026-04-13 17:04 | 44.65017 | 3.34807 | 35914 ft | 469 kts | 55° |
| 2026-04-13 17:05 | 44.68600 | 3.42360 | 35927 ft | 467 kts | 55° |
| 2026-04-13 17:05 | 44.72196 | 3.49962 | 35911 ft | 468 kts | 55° |
| 2026-04-13 17:06 | 44.75802 | 3.57604 | 35913 ft | 467 kts | 55° |
| 2026-04-13 17:06 | 44.79411 | 3.65274 | 35914 ft | 468 kts | 56° |
| 2026-04-13 17:07 | 44.83051 | 3.73031 | 35917 ft | 468 kts | 56° |
| 2026-04-13 17:07 | 44.86622 | 3.80661 | 35940 ft | 467 kts | 56° |
| 2026-04-13 17:08 | 44.90201 | 3.88327 | 35939 ft | 467 kts | 56° |
| 2026-04-13 17:08 | 44.93784 | 3.96025 | 35954 ft | 467 kts | 56° |
| 2026-04-13 17:09 | 44.97370 | 4.03747 | 35959 ft | 467 kts | 56° |
| 2026-04-13 17:09 | 45.00944 | 4.11466 | 35959 ft | 467 kts | 56° |
| 2026-04-13 17:10 | 45.04489 | 4.19143 | 35935 ft | 468 kts | 56° |
| 2026-04-13 17:10 | 45.08046 | 4.26867 | 35934 ft | 467 kts | 56° |
| 2026-04-13 17:11 | 45.11573 | 4.34545 | 35942 ft | 467 kts | 56° |
| 2026-04-13 17:11 | 45.15106 | 4.42260 | 35926 ft | 467 kts | 56° |
| 2026-04-13 17:12 | 45.18641 | 4.49997 | 35919 ft | 466 kts | 56° |
| 2026-04-13 17:12 | 45.22155 | 4.57711 | 35923 ft | 465 kts | 57° |
| 2026-04-13 17:13 | 45.25676 | 4.65459 | 35945 ft | 465 kts | 57° |
| 2026-04-13 17:13 | 45.29193 | 4.73222 | 35972 ft | 466 kts | 57° |
| 2026-04-13 17:14 | 45.32690 | 4.80963 | 35855 ft | 462 kts | 57° |
| 2026-04-13 17:14 | 45.34424 | 4.84807 | 35968 ft | 463 kts | 57° |
| 2026-04-13 17:14 | 45.36169 | 4.88682 | 35985 ft | 467 kts | 57° |
| 2026-04-13 17:15 | 45.39670 | 4.96473 | 35978 ft | 469 kts | 57° |
| 2026-04-13 17:15 | 45.43158 | 5.04258 | 35992 ft | 467 kts | 57° |
| 2026-04-13 17:16 | 45.46650 | 5.12072 | 35980 ft | 466 kts | 57° |
| 2026-04-13 17:16 | 45.50124 | 5.19868 | 35980 ft | 465 kts | 57° |
| 2026-04-13 17:17 | 45.53593 | 5.27673 | 35974 ft | 465 kts | 57° |
| 2026-04-13 17:17 | 45.57047 | 5.35468 | 35973 ft | 465 kts | 57° |
| 2026-04-13 17:18 | 45.60502 | 5.43286 | 35965 ft | 464 kts | 57° |
| 2026-04-13 17:18 | 45.63910 | 5.51020 | 35968 ft | 464 kts | 58° |
| 2026-04-13 17:19 | 45.67361 | 5.58794 | 36124 ft | 467 kts | 55° |
| 2026-04-13 17:19 | 45.69379 | 5.62418 | 35984 ft | 463 kts | 49° |
| 2026-04-13 17:19 | 45.71505 | 5.65877 | 35979 ft | 459 kts | 49° |
| 2026-04-13 17:20 | 45.75715 | 5.72768 | 35966 ft | 460 kts | 49° |
| 2026-04-13 17:20 | 45.79911 | 5.79660 | 35957 ft | 459 kts | 50° |
| 2026-04-13 17:21 | 45.84112 | 5.86581 | 35951 ft | 460 kts | 50° |
| 2026-04-13 17:21 | 45.88315 | 5.93519 | 35959 ft | 458 kts | 49° |
| 2026-04-13 17:22 | 45.92699 | 6.00132 | 35961 ft | 459 kts | 42° |
| 2026-04-13 17:22 | 45.97492 | 6.06291 | 35975 ft | 458 kts | 41° |
| 2026-04-13 17:23 | 46.02132 | 6.12267 | 35955 ft | 458 kts | 42° |
| 2026-04-13 17:23 | 46.06856 | 6.18443 | 35947 ft | 458 kts | 44° |
| 2026-04-13 17:24 | 46.10754 | 6.25708 | 35953 ft | 457 kts | 59° |
| 2026-04-13 17:24 | 46.13976 | 6.33637 | 35935 ft | 458 kts | 60° |
| 2026-04-13 17:25 | 46.17063 | 6.41751 | 35922 ft | 457 kts | 66° |
| 2026-04-13 17:25 | 46.18956 | 6.50429 | 35872 ft | 449 kts | 79° |
| 2026-04-13 17:25 | 46.19375 | 6.54848 | 35660 ft | 437 kts | 85° |
| 2026-04-13 17:26 | 46.19446 | 6.59198 | 35429 ft | 427 kts | 91° |
| 2026-04-13 17:26 | 46.19186 | 6.63451 | 35192 ft | 419 kts | 97° |
| 2026-04-13 17:26 | 46.18624 | 6.67482 | 34926 ft | 410 kts | 104° |
| 2026-04-13 17:27 | 46.15131 | 6.78702 | 34887 ft | 408 kts | 123° |
| 2026-04-13 17:27 | 46.12190 | 6.85669 | 34882 ft | 409 kts | 114° |
| 2026-04-13 17:28 | 46.10503 | 6.93588 | 34857 ft | 408 kts | 98° |
| 2026-04-13 17:28 | 46.10301 | 7.01755 | 34848 ft | 408 kts | 83° |
| 2026-04-13 17:29 | 46.11503 | 7.09698 | 34847 ft | 407 kts | 70° |
| 2026-04-13 17:29 | 46.12581 | 7.13510 | 34434 ft | 410 kts | 64° |
| 2026-04-13 17:29 | 46.13926 | 7.17118 | 33933 ft | 409 kts | 59° |
| 2026-04-13 17:30 | 46.15369 | 7.20684 | 33420 ft | 410 kts | 59° |
| 2026-04-13 17:30 | 46.16799 | 7.24235 | 32870 ft | 410 kts | 59° |
| 2026-04-13 17:30 | 46.18238 | 7.27815 | 32339 ft | 406 kts | 59° |
| 2026-04-13 17:30 | 46.19651 | 7.31339 | 31789 ft | 403 kts | 59° |
| 2026-04-13 17:31 | 46.21031 | 7.34784 | 31277 ft | 400 kts | 59° |
| 2026-04-13 17:31 | 46.22416 | 7.38248 | 30750 ft | 397 kts | 59° |
| 2026-04-13 17:31 | 46.23799 | 7.41711 | 30209 ft | 395 kts | 59° |
| 2026-04-13 17:31 | 46.25144 | 7.45085 | 29727 ft | 391 kts | 59° |
| 2026-04-13 17:32 | 46.26490 | 7.48464 | 29202 ft | 389 kts | 59° |
| 2026-04-13 17:32 | 46.27637 | 7.51987 | 28690 ft | 385 kts | 72° |
| 2026-04-13 17:32 | 46.28080 | 7.55788 | 28152 ft | 382 kts | 89° |
| 2026-04-13 17:32 | 46.27890 | 7.59562 | 27635 ft | 379 kts | 96° |
| 2026-04-13 17:33 | 46.27607 | 7.63295 | 27130 ft | 375 kts | 96° |
| 2026-04-13 17:33 | 46.27326 | 7.67045 | 26623 ft | 372 kts | 97° |
| 2026-04-13 17:33 | 46.27047 | 7.70765 | 26128 ft | 368 kts | 97° |
| 2026-04-13 17:33 | 46.26773 | 7.74382 | 25628 ft | 362 kts | 97° |
| 2026-04-13 17:34 | 46.26237 | 7.81414 | 24717 ft | 341 kts | 97° |
| 2026-04-13 17:34 | 46.25980 | 7.84768 | 24318 ft | 330 kts | 97° |
| 2026-04-13 17:34 | 46.25785 | 7.88051 | 24003 ft | 326 kts | 91° |
| 2026-04-13 17:35 | 46.26214 | 7.91259 | 23505 ft | 329 kts | 70° |
| 2026-04-13 17:35 | 46.27187 | 7.94225 | 23050 ft | 330 kts | 65° |
| 2026-04-13 17:35 | 46.28218 | 7.97201 | 22608 ft | 327 kts | 65° |
| 2026-04-13 17:35 | 46.29242 | 8.00088 | 22173 ft | 326 kts | 60° |
| 2026-04-13 17:36 | 46.30671 | 8.02612 | 21689 ft | 327 kts | 42° |
| 2026-04-13 17:36 | 46.32590 | 8.04370 | 21188 ft | 326 kts | 23° |
| 2026-04-13 17:36 | 46.34771 | 8.05125 | 20540 ft | 326 kts | 3° |
| 2026-04-13 17:36 | 46.36993 | 8.04464 | 19688 ft | 329 kts | 333° |
| 2026-04-13 17:37 | 46.38786 | 8.02572 | 19307 ft | 318 kts | 314° |
| 2026-04-13 17:37 | 46.40046 | 7.99975 | 18765 ft | 313 kts | 295° |
| 2026-04-13 17:37 | 46.40669 | 7.97014 | 17918 ft | 317 kts | 277° |
| 2026-04-13 17:37 | 46.40564 | 7.93920 | 17110 ft | 295 kts | 254° |
| 2026-04-13 17:38 | 46.39839 | 7.91331 | 17039 ft | 271 kts | 242° |
| 2026-04-13 17:38 | 46.38966 | 7.88945 | 16133 ft | 270 kts | 242° |
| 2026-04-13 17:38 | 46.38181 | 7.86597 | 15399 ft | 253 kts | 244° |
| 2026-04-13 17:38 | 46.37501 | 7.84389 | 14995 ft | 231 kts | 244° |
| 2026-04-13 17:39 | 46.36872 | 7.82292 | 14243 ft | 230 kts | 245° |
| 2026-04-13 17:39 | 46.36263 | 7.80230 | 13661 ft | 214 kts | 245° |
| 2026-04-13 17:39 | 46.35700 | 7.78327 | 13194 ft | 200 kts | 245° |
| 2026-04-13 17:39 | 46.35183 | 7.76573 | 12622 ft | 184 kts | 244° |
| 2026-04-13 17:40 | 46.34701 | 7.74950 | 12139 ft | 167 kts | 245° |
| 2026-04-13 17:40 | 46.34262 | 7.73473 | 11781 ft | 158 kts | 245° |
| 2026-04-13 17:40 | 46.33834 | 7.72034 | 11352 ft | 157 kts | 245° |
| 2026-04-13 17:40 | 46.33403 | 7.70588 | 10944 ft | 155 kts | 245° |
| 2026-04-13 17:41 | 46.32982 | 7.69185 | 10537 ft | 155 kts | 244° |
| 2026-04-13 17:41 | 46.32552 | 7.67760 | 10150 ft | 154 kts | 243° |
| 2026-04-13 17:41 | 46.32133 | 7.66362 | 9771 ft | 152 kts | 245° |
| 2026-04-13 17:41 | 46.31716 | 7.64953 | 9356 ft | 151 kts | 245° |
| 2026-04-13 17:42 | 46.31303 | 7.63559 | 8965 ft | 150 kts | 245° |
| 2026-04-13 17:42 | 46.30893 | 7.62188 | 8555 ft | 149 kts | 245° |
| 2026-04-13 17:42 | 46.30486 | 7.60820 | 8165 ft | 148 kts | 245° |
| 2026-04-13 17:42 | 46.30087 | 7.59471 | 7782 ft | 147 kts | 246° |
| 2026-04-13 17:43 | 46.29685 | 7.58114 | 7384 ft | 147 kts | 246° |
| 2026-04-13 17:43 | 46.29283 | 7.56760 | 7000 ft | 146 kts | 246° |
| 2026-04-13 17:43 | 46.28887 | 7.55429 | 6614 ft | 146 kts | 247° |
| 2026-04-13 17:43 | 46.28487 | 7.54092 | 6229 ft | 144 kts | 247° |
| 2026-04-13 17:44 | 46.28091 | 7.52770 | 5853 ft | 144 kts | 248° |
| 2026-04-13 17:44 | 46.27694 | 7.51443 | 5462 ft | 144 kts | 248° |
| 2026-04-13 17:44 | 46.27286 | 7.50132 | 5086 ft | 142 kts | 245° |
| 2026-04-13 17:44 | 46.26861 | 7.48864 | 4728 ft | 141 kts | 246° |
| 2026-04-13 17:45 | 46.26477 | 7.47561 | 4379 ft | 140 kts | 250° |
| 2026-04-13 17:45 | 46.26086 | 7.46269 | 4018 ft | 139 kts | 246° |
| 2026-04-13 17:45 | 46.25670 | 7.45017 | 3654 ft | 139 kts | 244° |
| 2026-04-13 17:45 | 46.25211 | 7.43799 | 3286 ft | 138 kts | 241° |
| 2026-04-13 17:46 | 46.24744 | 7.42598 | 2914 ft | 137 kts | 243° |
| 2026-04-13 17:46 | 46.24307 | 7.41399 | 2595 ft | 133 kts | 244° |
| 2026-04-13 17:46 | 46.23870 | 7.40239 | 2289 ft | 129 kts | 243° |
| 2026-04-13 17:46 | 46.23452 | 7.39141 | 2036 ft | 123 kts | 245° |
| 2026-04-13 17:47 | 46.23098 | 7.37979 | 2015 ft | 136 kts | 251° |
| 2026-04-13 17:47 | 46.22789 | 7.36649 | 2051 ft | 138 kts | 253° |
| 2026-04-13 17:47 | 46.22513 | 7.35399 | 1881 ft | 127 kts | 253° |
| 2026-04-13 17:47 | 46.22260 | 7.34215 | 1675 ft | 121 kts | 253° |
| 2026-04-13 17:48 | 46.22015 | 7.33075 | 1580 ft | 110 kts | 252° |
| 2026-04-13 17:48 | 46.21845 | 7.32283 | 1576 ft | 52 kts | 252° |
| 2026-04-13 17:48 | 46.21782 | 7.31968 | 1575 ft | 13 kts | 268° |
| 2026-04-13 17:48 | 46.21767 | 7.31962 | 1575 ft | 10 kts | 68° |
| 2026-04-13 17:49 | 46.21818 | 7.32155 | 1576 ft | 28 kts | 71° |
| 2026-04-13 17:49 | 46.21878 | 7.32433 | 1577 ft | 23 kts | 73° |
| 2026-04-13 17:49 | 46.21923 | 7.32648 | 1577 ft | 21 kts | 71° |
| 2026-04-13 17:49 | 46.21972 | 7.32870 | 1578 ft | 24 kts | 73° |
| 2026-04-13 17:50 | 46.22022 | 7.33112 | 1579 ft | 15 kts | 73° |
| 2026-04-13 17:50 | 46.22049 | 7.33236 | 1580 ft | 14 kts | 73° |
| 2026-04-13 17:50 | 46.22083 | 7.33395 | 1581 ft | 18 kts | 73° |
| 2026-04-13 17:50 | 46.22124 | 7.33590 | 1582 ft | 17 kts | 72° |
| 2026-04-13 17:51 | 46.22131 | 7.33677 | 1582 ft | 7 kts | 123° |
| 2026-04-13 17:51 | 46.22086 | 7.33697 | 1582 ft | 4 kts | 188° |
| 2026-04-13 17:51 | 46.22063 | 7.33686 | 1582 ft | 4 kts | 200° |
| 2026-04-13 17:51 | 46.22030 | 7.33674 | 1582 ft | 3 kts | 189° |
| 2026-04-13 17:52 | 46.22001 | 7.33654 | 1582 ft | 3 kts | 238° |
| 2026-04-13 17:52 | 46.22002 | 7.33633 | 1582 ft | 1 kts | 322° |
| 2026-04-13 17:52 | 46.22010 | 7.33628 | 1582 ft | 0 kts | 341° |
| 2026-04-13 17:52 | 46.22011 | 7.33628 | 1582 ft | 0 kts | 341° |